Time;durP1;ratioP1;P1;durP2;ratioP2;P2;SDS_P1;SDS_P2;PMS_P1;PMS_P2;Temp;Humidity;BMP_temperature;BMP_pressure;BME280_temperature;BME280_humidity;BME280_pressure;Samples;Min_cycle;Max_cycle;Signal;HPM_P1;HPM_P2
2022/10/12 00:01:22;;;;;;;1.60;1.25;;;11.50;81.50;;;;;;1924652;74;21035;-59
2022/10/12 00:03:51;;;;;;;4.33;1.50;;;11.50;81.40;;;;;;1924674;74;21544;-58
2022/10/12 00:06:22;;;;;;;2.27;1.20;;;11.50;81.80;;;;;;1924816;74;21007;-58
2022/10/12 00:08:53;;;;;;;6.20;1.55;;;11.50;81.70;;;;;;1924716;74;21089;-58
2022/10/12 00:11:25;;;;;;;2.80;1.57;;;11.50;82.20;;;;;;1924833;74;21007;-58
2022/10/12 00:13:55;;;;;;;2.60;1.57;;;11.50;82.70;;;;;;1924756;74;21007;-58
2022/10/12 00:16:25;;;;;;;1.80;1.32;;;11.50;83.10;;;;;;1924767;74;21082;-58
2022/10/12 00:18:55;;;;;;;5.30;1.65;;;11.50;83.30;;;;;;1924846;74;21461;-58
2022/10/12 00:21:26;;;;;;;3.05;1.60;;;11.50;83.60;;;;;;1924815;74;21094;-58
2022/10/12 00:23:57;;;;;;;3.80;1.27;;;11.50;83.40;;;;;;1924901;74;20999;-59
2022/10/12 00:26:26;;;;;;;2.83;1.27;;;11.50;83.10;;;;;;1924841;74;21502;-59
2022/10/12 00:28:58;;;;;;;2.25;1.25;;;11.50;82.80;;;;;;1924719;74;21021;-58
2022/10/12 00:31:28;;;;;;;2.55;1.37;;;11.50;82.60;;;;;;1924734;74;21000;-58
2022/10/12 00:34:01;;;;;;;1.98;1.10;;;11.40;82.50;;;;;;1924697;74;21007;-58
2022/10/12 00:36:32;;;;;;;2.10;1.67;;;11.40;82.40;;;;;;1924709;74;21073;-58
2022/10/12 00:39:03;;;;;;;1.45;1.20;;;11.40;82.20;;;;;;1924682;74;21007;-58
2022/10/12 00:41:36;;;;;;;1.98;1.22;;;11.40;81.90;;;;;;1924633;74;21512;-58
2022/10/12 00:44:06;;;;;;;4.03;1.32;;;11.40;81.50;;;;;;1924712;74;21069;-58
2022/10/12 00:46:41;;;;;;;2.90;1.80;;;11.30;81.70;;;;;;1921636;74;21089;-58
2022/10/12 00:49:15;;;;;;;1.82;1.20;;;11.30;81.70;;;;;;1924925;74;21104;-58
2022/10/12 00:51:50;;;;;;;2.47;1.25;;;11.30;81.70;;;;;;1888074;76;21116;-58
2022/10/12 00:54:25;;;;;;;4.33;1.37;;;11.20;81.80;;;;;;1878071;76;21051;-58
2022/10/12 00:56:56;;;;;;;2.87;1.20;;;11.20;82.10;;;;;;1878221;76;21535;-59
2022/10/12 00:59:28;;;;;;;3.00;1.20;;;11.20;82.40;;;;;;1878070;76;21081;-59
2022/10/12 01:01:57;;;;;;;1.75;1.27;;;11.20;82.50;;;;;;1865039;76;21552;-58
2022/10/12 01:04:27;;;;;;;2.33;1.55;;;11.20;82.70;;;;;;1905613;75;21133;-58
2022/10/12 01:06:56;;;;;;;5.15;1.60;;;11.20;82.70;;;;;;1905585;75;21077;-58
2022/10/12 01:09:26;;;;;;;1.15;1.05;;;11.20;82.70;;;;;;1905467;75;21016;-58
2022/10/12 01:11:57;;;;;;;1.60;1.37;;;11.20;82.70;;;;;;1905465;75;21032;-58
2022/10/12 01:14:27;;;;;;;2.98;1.80;;;11.30;82.60;;;;;;1905528;75;21000;-58
2022/10/12 01:17:22;;;;;;;10.80;1.40;;;11.20;82.80;;;;;;1905434;75;21035;-59
2022/10/12 01:20:10;;;;;;;1.15;0.95;;;11.30;82.80;;;;;;1905516;74;21449;-58
2022/10/12 01:22:58;;;;;;;1.67;1.27;;;11.30;82.40;;;;;;1905548;75;21086;-58
2022/10/12 01:25:46;;;;;;;1.82;1.50;;;11.10;81.70;;;;;;1905500;75;21036;-58
2022/10/12 01:28:18;;;;;;;1.57;1.32;;;10.90;81.50;;;;;;1905516;75;21082;-58
2022/10/12 01:30:50;;;;;;;2.12;1.47;;;10.70;82.00;;;;;;1905279;74;21015;-59
2022/10/12 01:33:22;;;;;;;2.30;1.45;;;10.40;82.70;;;;;;1905587;75;21031;-58
2022/10/12 01:36:23;;;;;;;4.72;1.52;;;10.30;83.00;;;;;;1905609;75;21006;-59
2022/10/12 01:39:01;;;;;;;1.85;1.20;;;10.30;83.70;;;;;;1905639;75;21097;-59
2022/10/12 01:41:36;;;;;;;2.60;1.40;;;10.20;83.70;;;;;;1902885;74;21011;-59
2022/10/12 01:44:06;;;;;;;1.95;1.57;;;10.20;83.80;;;;;;1904993;74;21469;-58
2022/10/12 01:46:37;;;;;;;2.62;1.72;;;10.00;83.50;;;;;;1905483;74;21136;-58
2022/10/12 01:49:07;;;;;;;2.00;1.67;;;9.90;84.20;;;;;;1905555;74;21019;-58
2022/10/12 01:51:42;;;;;;;1.82;1.40;;;9.80;84.80;;;;;;1905459;75;21090;-59
2022/10/12 01:54:17;;;;;;;4.17;1.82;;;9.80;84.70;;;;;;1904837;74;21032;-59
2022/10/12 01:57:07;;;;;;;4.53;1.57;;;9.70;84.80;;;;;;1905306;74;21415;-59
2022/10/12 01:59:55;;;;;;;2.47;1.40;;;9.70;85.00;;;;;;1905137;74;21052;-59
2022/10/12 02:02:32;;;;;;;2.50;1.62;;;9.60;85.70;;;;;;1920023;74;21096;-58
2022/10/12 02:05:04;;;;;;;2.15;1.42;;;9.70;85.90;;;;;;1924820;74;21038;-58
2022/10/12 02:07:35;;;;;;;4.80;1.32;;;9.70;86.00;;;;;;1923706;74;21586;-58
2022/10/12 02:10:07;;;;;;;3.58;1.47;;;9.80;86.10;;;;;;1887547;76;21017;-58
2022/10/12 02:12:37;;;;;;;4.28;1.90;;;9.90;86.40;;;;;;1878075;76;21080;-58
2022/10/12 02:15:08;;;;;;;3.65;1.55;;;9.90;86.30;;;;;;1878169;76;21023;-58
2022/10/12 02:17:43;;;;;;;4.58;1.67;;;9.90;85.90;;;;;;1878212;76;21200;-58
2022/10/12 02:20:15;;;;;;;3.33;1.52;;;9.90;86.10;;;;;;1878268;76;21086;-58
2022/10/12 02:22:46;;;;;;;4.15;1.50;;;9.80;85.40;;;;;;1878198;76;21566;-58
2022/10/12 02:25:18;;;;;;;2.02;1.80;;;9.80;85.60;;;;;;1878084;76;21046;-58
2022/10/12 02:27:53;;;;;;;7.53;1.90;;;9.60;85.70;;;;;;1878028;76;21512;-58
2022/10/12 02:30:22;;;;;;;8.85;2.85;;;9.60;86.10;;;;;;1878207;76;21031;-58
2022/10/12 02:33:03;;;;;;;8.00;2.12;;;9.50;85.80;;;;;;1878169;76;21089;-58
2022/10/12 02:35:51;;;;;;;4.47;1.60;;;9.40;85.60;;;;;;1812429;76;21169;-58
2022/10/12 02:38:29;;;;;;;5.95;2.35;;;9.40;86.40;;;;;;1876670;76;21085;-59
2022/10/12 02:41:06;;;;;;;5.42;2.00;;;9.30;86.30;;;;;;1867165;76;21108;-58
2022/10/12 02:43:41;;;;;;;8.40;2.30;;;9.30;86.60;;;;;;1878142;76;21505;-58
2022/10/12 02:46:11;;;;;;;3.27;2.10;;;9.30;86.90;;;;;;1870306;76;21457;-58
2022/10/12 02:48:41;;;;;;;3.60;2.00;;;9.30;86.90;;;;;;1878004;76;21023;-58
2022/10/12 02:51:11;;;;;;;2.92;2.15;;;9.30;86.70;;;;;;1878046;76;21096;-58
2022/10/12 02:53:41;;;;;;;10.05;3.15;;;9.30;86.80;;;;;;1878079;76;21023;-59
2022/10/12 02:56:14;;;;;;;4.42;2.30;;;9.20;87.20;;;;;;1878040;76;21051;-58
2022/10/12 02:58:45;;;;;;;6.65;2.60;;;9.30;87.00;;;;;;1878009;76;21383;-59
2022/10/12 03:01:20;;;;;;;3.70;2.47;;;9.30;87.20;;;;;;1877596;76;21147;-58
2022/10/12 03:03:46;;;;;;;5.70;3.40;;;9.20;87.00;;;;;;1870163;77;21501;-58
2022/10/12 03:06:15;;;;;;;5.37;3.22;;;9.20;86.80;;;;;;1871298;77;20999;-58
2022/10/12 03:08:43;;;;;;;4.70;3.50;;;9.10;86.60;;;;;;1871286;77;21114;-58
2022/10/12 03:11:13;;;;;;;4.70;2.45;;;9.00;86.30;;;;;;1871420;77;21023;-59
2022/10/12 03:13:43;;;;;;;3.55;2.05;;;9.00;86.80;;;;;;1871417;77;21023;-58
2022/10/12 03:16:12;;;;;;;4.05;1.98;;;8.90;86.90;;;;;;1871283;77;21086;-59
2022/10/12 03:18:42;;;;;;;2.47;1.75;;;8.90;87.20;;;;;;1871397;77;21055;-58
2022/10/12 03:21:11;;;;;;;2.37;1.87;;;8.90;87.80;;;;;;1871264;77;21023;-58
2022/10/12 03:23:41;;;;;;;4.15;1.85;;;8.90;87.40;;;;;;1871312;77;21015;-58
2022/10/12 03:26:10;;;;;;;5.55;2.02;;;8.90;87.40;;;;;;1871227;76;21109;-58
2022/10/12 03:28:39;;;;;;;5.25;1.95;;;8.90;87.50;;;;;;1871243;77;21067;-58
2022/10/12 03:31:08;;;;;;;5.58;2.70;;;8.90;88.20;;;;;;1871252;76;21059;-59
2022/10/12 03:33:37;;;;;;;5.33;2.35;;;8.90;88.30;;;;;;1871418;77;21023;-58
2022/10/12 03:36:07;;;;;;;4.50;2.47;;;8.90;88.00;;;;;;1871285;77;20995;-59
2022/10/12 03:38:36;;;;;;;7.17;2.55;;;8.90;88.50;;;;;;1871321;77;21089;-58
2022/10/12 03:41:05;;;;;;;4.12;2.35;;;9.00;88.40;;;;;;1871323;76;21043;-58
2022/10/12 03:43:35;;;;;;;2.80;2.15;;;9.00;88.00;;;;;;1871301;77;21046;-58
2022/10/12 03:46:05;;;;;;;3.47;2.02;;;9.00;88.10;;;;;;1871309;77;21066;-58
2022/10/12 03:48:34;;;;;;;2.87;1.80;;;9.00;88.50;;;;;;1871260;77;21090;-58
2022/10/12 03:51:03;;;;;;;5.10;1.95;;;9.00;88.50;;;;;;1871407;77;21454;-58
2022/10/12 03:53:32;;;;;;;8.63;2.58;;;9.10;88.80;;;;;;1871361;77;21129;-58
2022/10/12 03:56:01;;;;;;;4.20;1.85;;;9.20;89.10;;;;;;1871278;77;21093;-58
2022/10/12 03:58:30;;;;;;;5.03;2.37;;;9.30;89.20;;;;;;1871312;77;21114;-58
2022/10/12 04:00:59;;;;;;;5.78;2.83;;;9.40;89.30;;;;;;1871229;76;21070;-58
2022/10/12 04:03:29;;;;;;;5.17;2.77;;;9.50;89.20;;;;;;1864322;77;21137;-58
2022/10/12 04:05:58;;;;;;;6.78;2.20;;;9.60;89.50;;;;;;1905207;75;21027;-58
2022/10/12 04:08:27;;;;;;;5.55;2.08;;;9.70;89.20;;;;;;1905392;75;21050;-58
2022/10/12 04:10:57;;;;;;;6.80;3.20;;;9.60;89.20;;;;;;1905255;75;21003;-58
2022/10/12 04:13:26;;;;;;;3.22;2.20;;;9.70;89.00;;;;;;1905398;75;21027;-58
2022/10/12 04:15:55;;;;;;;7.03;4.15;;;9.70;89.20;;;;;;1905303;75;21106;-58
2022/10/12 04:18:25;;;;;;;23.02;5.33;;;9.70;89.20;;;;;;1905233;75;21055;-58
2022/10/12 04:20:54;;;;;;;15.15;4.40;;;9.70;89.50;;;;;;1905180;75;21054;-58
2022/10/12 04:23:23;;;;;;;9.05;3.10;;;9.70;89.60;;;;;;1905188;75;21019;-58
2022/10/12 04:25:53;;;;;;;10.20;3.02;;;9.70;88.80;;;;;;1905178;75;21031;-58
2022/10/12 04:28:22;;;;;;;4.40;3.10;;;9.70;88.70;;;;;;1905124;75;21141;-58
2022/10/12 04:30:51;;;;;;;3.52;2.50;;;9.70;88.60;;;;;;1905049;75;21089;-58
2022/10/12 04:33:21;;;;;;;7.92;3.15;;;9.70;89.30;;;;;;1905192;75;21141;-58
2022/10/12 04:35:50;;;;;;;5.15;2.60;;;9.70;89.50;;;;;;1905373;75;21031;-59
2022/10/12 04:38:19;;;;;;;18.57;16.95;;;9.70;89.30;;;;;;1905435;75;21000;-58
2022/10/12 04:40:49;;;;;;;7.03;5.22;;;9.80;89.30;;;;;;1905347;74;21058;-58
2022/10/12 04:43:18;;;;;;;7.17;2.77;;;9.80;89.10;;;;;;1905366;75;21065;-58
2022/10/12 04:45:58;;;;;;;7.80;2.60;;;9.90;88.70;;;;;;1905347;75;21008;-58
2022/10/12 04:48:27;;;;;;;4.87;2.90;;;9.90;88.60;;;;;;1905432;75;21106;-58
2022/10/12 04:50:57;;;;;;;18.57;8.25;;;9.90;88.60;;;;;;1905377;75;21044;-58
2022/10/12 04:53:26;;;;;;;5.10;3.00;;;10.00;88.60;;;;;;1905353;75;21066;-58
2022/10/12 04:55:55;;;;;;;8.50;3.05;;;10.00;88.80;;;;;;1905398;75;21083;-58
2022/10/12 04:58:24;;;;;;;8.18;2.80;;;10.10;88.70;;;;;;1905289;75;21051;-58
2022/10/12 05:00:53;;;;;;;2.75;2.12;;;10.10;89.00;;;;;;1905305;75;21035;-58
2022/10/12 05:03:23;;;;;;;5.75;2.98;;;10.30;89.00;;;;;;1905334;74;21215;-58
2022/10/12 05:05:52;;;;;;;12.65;3.42;;;10.40;88.60;;;;;;1905406;75;21027;-58
2022/10/12 05:08:21;;;;;;;12.55;3.37;;;10.50;88.50;;;;;;1905226;75;21073;-58
2022/10/12 05:10:50;;;;;;;5.03;2.50;;;10.50;88.50;;;;;;1905401;75;21074;-58
2022/10/12 05:13:19;;;;;;;5.62;2.80;;;10.60;88.50;;;;;;1905421;75;21422;-58
2022/10/12 05:15:48;;;;;;;9.40;2.98;;;10.70;88.40;;;;;;1905333;75;21446;-58
2022/10/12 05:18:17;;;;;;;8.53;4.12;;;10.80;88.30;;;;;;1905273;75;21087;-58
2022/10/12 05:20:47;;;;;;;21.30;7.08;;;10.90;88.30;;;;;;1905252;75;21023;-58
2022/10/12 05:23:16;;;;;;;12.85;4.65;;;11.10;88.40;;;;;;1905281;75;21003;-58
2022/10/12 05:25:45;;;;;;;5.20;3.58;;;11.20;88.40;;;;;;1905401;75;21439;-58
2022/10/12 05:28:15;;;;;;;7.58;4.37;;;11.30;88.30;;;;;;1905265;75;21071;-58
2022/10/12 05:30:44;;;;;;;6.75;3.33;;;11.40;88.50;;;;;;1905276;75;21031;-58
2022/10/12 05:33:13;;;;;;;9.63;3.25;;;11.50;88.20;;;;;;1905310;75;21089;-58
2022/10/12 05:35:42;;;;;;;4.85;2.30;;;11.70;88.10;;;;;;1905295;75;21577;-59
2022/10/12 05:38:11;;;;;;;6.12;2.85;;;11.80;88.50;;;;;;1905433;75;21482;-59
2022/10/12 05:40:41;;;;;;;5.55;2.35;;;12.00;88.10;;;;;;1905142;74;21812;-58
2022/10/12 05:43:10;;;;;;;11.70;3.15;;;12.10;87.80;;;;;;1905130;75;21110;-58
2022/10/12 05:45:39;;;;;;;12.82;2.80;;;12.20;87.60;;;;;;1905089;75;20992;-58
2022/10/12 05:48:08;;;;;;;5.03;2.37;;;12.30;87.60;;;;;;1904883;74;21023;-58
2022/10/12 05:50:38;;;;;;;18.77;7.12;;;12.50;87.60;;;;;;1905043;74;21035;-58
2022/10/12 05:53:07;;;;;;;4.83;2.25;;;12.50;87.40;;;;;;1905109;75;21113;-58
2022/10/12 05:55:35;;;;;;;2.60;1.95;;;12.70;87.30;;;;;;1905181;75;21023;-58
2022/10/12 05:58:05;;;;;;;9.30;2.47;;;12.80;87.00;;;;;;1905269;75;21574;-58
2022/10/12 06:00:34;;;;;;;5.78;1.67;;;12.90;86.50;;;;;;1905315;75;21040;-58
2022/10/12 06:03:03;;;;;;;8.75;2.50;;;13.00;86.40;;;;;;1906734;74;21082;-58
2022/10/12 06:05:32;;;;;;;2.17;1.80;;;13.10;86.40;;;;;;1924704;74;21031;-58
2022/10/12 06:08:02;;;;;;;2.42;1.72;;;13.20;86.30;;;;;;1924750;74;21010;-58
2022/10/12 06:10:31;;;;;;;5.75;1.92;;;13.30;86.10;;;;;;1924685;74;21093;-58
2022/10/12 06:13:00;;;;;;;8.68;1.60;;;13.30;86.40;;;;;;1924761;74;21030;-58
2022/10/12 06:15:29;;;;;;;2.95;1.55;;;13.40;85.80;;;;;;1924706;74;21533;-58
2022/10/12 06:17:58;;;;;;;2.50;1.80;;;13.50;85.50;;;;;;1924637;74;21019;-58
2022/10/12 06:20:28;;;;;;;3.33;1.85;;;13.50;85.30;;;;;;1924691;74;21011;-58
2022/10/12 06:22:57;;;;;;;2.85;1.45;;;13.60;85.20;;;;;;1924791;74;21108;-58
2022/10/12 06:25:26;;;;;;;5.05;1.87;;;13.70;84.80;;;;;;1924669;74;21143;-58
2022/10/12 06:27:56;;;;;;;3.92;2.22;;;13.70;84.70;;;;;;1924833;74;21092;-58
2022/10/12 06:30:25;;;;;;;9.13;4.08;;;13.80;84.30;;;;;;1924675;74;21351;-58
2022/10/12 06:32:54;;;;;;;5.87;2.20;;;13.90;83.90;;;;;;1924770;74;21031;-58
2022/10/12 06:35:23;;;;;;;6.03;3.87;;;13.90;83.90;;;;;;1924733;74;21069;-58
2022/10/12 06:37:52;;;;;;;6.83;2.45;;;14.00;83.70;;;;;;1924658;74;21465;-58
2022/10/12 06:40:21;;;;;;;4.25;1.95;;;14.00;83.80;;;;;;1924594;74;21091;-58
2022/10/12 06:42:51;;;;;;;3.85;1.98;;;14.00;82.80;;;;;;1924625;74;21046;-58
2022/10/12 06:45:20;;;;;;;7.90;1.85;;;14.10;83.00;;;;;;1924801;74;21092;-58
2022/10/12 06:47:49;;;;;;;4.45;2.40;;;14.20;82.50;;;;;;1924648;74;21101;-58
2022/10/12 06:50:18;;;;;;;4.08;2.67;;;14.20;82.30;;;;;;1924750;74;21440;-58
2022/10/12 06:52:48;;;;;;;17.40;3.08;;;14.30;82.20;;;;;;1924626;74;21039;-59
2022/10/12 06:55:17;;;;;;;4.97;2.80;;;14.30;82.00;;;;;;1924620;74;21046;-58
2022/10/12 06:57:46;;;;;;;4.10;3.22;;;14.40;82.20;;;;;;1924638;74;21011;-58
2022/10/12 07:00:16;;;;;;;8.28;2.80;;;14.40;81.00;;;;;;1924682;74;21073;-58
2022/10/12 07:02:47;;;;;;;4.12;2.55;;;14.50;81.10;;;;;;1924655;74;21034;-58
2022/10/12 07:05:16;;;;;;;5.75;3.12;;;14.60;80.20;;;;;;1924659;74;21101;-58
2022/10/12 07:07:45;;;;;;;8.48;3.22;;;14.60;80.30;;;;;;1924619;74;21124;-58
2022/10/12 07:10:14;;;;;;;6.85;3.45;;;14.70;80.60;;;;;;1924674;74;21034;-59
2022/10/12 07:12:44;;;;;;;10.23;5.67;;;14.70;79.50;;;;;;1924819;74;21074;-58
2022/10/12 07:15:13;;;;;;;6.17;3.08;;;14.70;79.90;;;;;;1924745;74;21088;-59
2022/10/12 07:17:42;;;;;;;5.92;2.85;;;14.80;80.10;;;;;;1924591;74;20983;-58
2022/10/12 07:20:12;;;;;;;9.18;3.22;;;14.80;79.90;;;;;;1924613;74;21069;-58
2022/10/12 07:22:41;;;;;;;4.30;2.17;;;14.90;79.50;;;;;;1924773;74;21011;-58
2022/10/12 07:25:10;;;;;;;3.83;2.30;;;15.00;79.30;;;;;;1924562;74;21022;-58
2022/10/12 07:27:40;;;;;;;5.72;2.35;;;15.00;78.90;;;;;;1924700;74;21011;-58
2022/10/12 07:30:10;;;;;;;5.72;2.20;;;15.00;78.10;;;;;;1924507;74;21019;-58
2022/10/12 07:32:41;;;;;;;5.33;2.50;;;14.90;78.30;;;;;;1924632;74;21022;-58
2022/10/12 07:35:10;;;;;;;4.15;2.17;;;14.90;78.70;;;;;;1924720;74;21430;-58
2022/10/12 07:37:40;;;;;;;5.35;2.30;;;14.90;79.20;;;;;;1924656;74;21061;-58
2022/10/12 07:40:09;;;;;;;2.65;2.22;;;14.90;77.50;;;;;;1924688;74;21100;-57
2022/10/12 07:42:39;;;;;;;4.87;2.92;;;14.90;77.10;;;;;;1924516;74;21035;-58
2022/10/12 07:45:09;;;;;;;6.97;3.47;;;14.90;77.80;;;;;;1924604;74;21007;-58
2022/10/12 07:47:38;;;;;;;6.87;3.70;;;14.90;77.80;;;;;;1924564;74;21014;-58
2022/10/12 07:50:08;;;;;;;6.97;2.75;;;15.00;77.90;;;;;;1924574;74;20999;-58
2022/10/12 07:52:37;;;;;;;3.75;2.65;;;15.00;77.60;;;;;;1924594;74;21054;-58
2022/10/12 07:55:07;;;;;;;4.87;2.75;;;15.10;78.10;;;;;;1924591;74;21073;-58
2022/10/12 07:57:37;;;;;;;4.95;1.85;;;15.20;77.00;;;;;;1924790;74;21003;-58
2022/10/12 08:00:07;;;;;;;6.15;2.17;;;15.30;75.40;;;;;;1924740;74;21050;-58
2022/10/12 08:02:37;;;;;;;6.85;2.20;;;15.30;75.90;;;;;;1924298;74;21088;-58
2022/10/12 08:05:07;;;;;;;3.62;2.10;;;15.30;75.60;;;;;;1916980;74;21341;-58
2022/10/12 08:07:36;;;;;;;3.83;1.90;;;15.20;75.70;;;;;;1905248;75;21051;-58
2022/10/12 08:10:06;;;;;;;4.80;2.35;;;15.10;75.70;;;;;;1905144;75;21093;-58
2022/10/12 08:12:35;;;;;;;7.92;1.92;;;15.20;75.60;;;;;;1905430;75;21008;-58
2022/10/12 08:15:05;;;;;;;4.85;2.65;;;15.20;75.70;;;;;;1905230;75;21027;-58
2022/10/12 08:17:34;;;;;;;2.37;1.72;;;15.30;76.00;;;;;;1892360;75;21053;-58
2022/10/12 08:20:03;;;;;;;2.85;2.00;;;15.40;74.20;;;;;;1905137;75;21116;-58
2022/10/12 08:22:32;;;;;;;1.62;1.25;;;15.50;73.40;;;;;;1905332;75;21035;-59
2022/10/12 08:25:02;;;;;;;4.80;1.77;;;15.60;72.60;;;;;;1905302;75;21009;-58
2022/10/12 08:27:31;;;;;;;6.85;3.25;;;15.70;72.50;;;;;;1905387;75;21023;-58
2022/10/12 08:30:00;;;;;;;4.83;2.72;;;15.70;72.90;;;;;;1905212;75;21011;-58
2022/10/12 08:32:31;;;;;;;4.03;2.58;;;15.80;72.00;;;;;;1905325;75;21088;-58
2022/10/12 08:35:01;;;;;;;4.53;2.58;;;15.90;71.50;;;;;;1905436;75;21101;-58
2022/10/12 08:37:30;;;;;;;6.20;1.75;;;15.90;71.60;;;;;;1905436;75;21032;-58
2022/10/12 08:39:59;;;;;;;5.97;1.80;;;16.00;69.40;;;;;;1905366;75;21003;-59
2022/10/12 08:42:46;;;;;;;1.52;1.25;;;16.00;69.10;;;;;;1905254;75;21027;-58
2022/10/12 08:45:24;;;;;;;4.50;1.90;;;16.00;68.00;;;;;;1905067;74;21532;-58
2022/10/12 08:47:57;;;;;;;5.53;1.57;;;15.90;68.80;;;;;;1901836;75;21019;-58
2022/10/12 08:50:34;;;;;;;6.60;1.90;;;15.90;68.30;;;;;;1905168;75;21015;-58
2022/10/12 08:53:06;;;;;;;3.37;2.25;;;15.90;68.50;;;;;;1905288;75;21113;-58
2022/10/12 08:55:38;;;;;;;3.83;1.70;;;15.90;69.00;;;;;;1905011;74;21525;-58
2022/10/12 08:58:12;;;;;;;2.35;1.87;;;15.90;68.50;;;;;;1905334;74;21086;-58
2022/10/12 09:00:43;;;;;;;8.60;2.62;;;16.00;68.50;;;;;;1905618;75;20996;-58
2022/10/12 09:03:39;;;;;;;4.70;2.50;;;16.00;68.70;;;;;;1905358;75;21028;-58
2022/10/12 09:06:17;;;;;;;;;;;16.10;67.90;;;;;;1919154;74;21114;-58
2022/10/12 09:08:55;;;;;;;7.87;2.77;;;16.10;65.70;;;;;;1924631;74;20225;-58
2022/10/12 09:11:46;;;;;;;3.62;2.10;;;16.20;68.70;;;;;;1887501;76;21021;-58
2022/10/12 09:14:22;;;;;;;3.22;2.08;;;16.20;68.80;;;;;;1876558;76;21055;-58
2022/10/12 09:16:53;;;;;;;5.62;2.02;;;16.30;68.10;;;;;;1877939;76;21068;-58
2022/10/12 09:19:37;;;;;;;4.33;2.33;;;16.40;67.80;;;;;;1878020;76;21184;-58
2022/10/12 09:22:09;;;;;;;3.83;2.08;;;16.40;67.50;;;;;;1877156;76;21054;-58
2022/10/12 09:24:39;;;;;;;2.12;1.40;;;16.50;66.80;;;;;;1877062;76;21063;-58
2022/10/12 09:27:17;;;;;;;3.40;1.55;;;16.50;66.30;;;;;;1877983;76;21100;-58
2022/10/12 09:29:49;;;;;;;2.58;1.50;;;16.50;66.30;;;;;;1877985;76;21023;-58
2022/10/12 09:32:25;;;;;;;6.37;2.60;;;16.50;66.50;;;;;;1878092;76;21154;-58
2022/10/12 09:34:56;;;;;;;3.55;1.75;;;16.50;66.60;;;;;;1839849;76;21477;-58
2022/10/12 09:37:28;;;;;;;5.47;3.30;;;16.60;66.50;;;;;;1877870;76;21014;-58
2022/10/12 09:40:26;;;;;;;5.87;3.52;;;16.60;66.40;;;;;;1878059;76;21126;-58
2022/10/12 09:42:57;;;;;;;5.97;2.25;;;16.60;66.90;;;;;;1808051;79;21044;-59
2022/10/12 09:45:28;;;;;;;10.78;4.03;;;16.60;65.50;;;;;;1872818;77;21042;-59
2022/10/12 09:48:15;;;;;;;2.20;2.00;;;16.70;63.70;;;;;;1872861;77;21089;-59
2022/10/12 09:50:49;;;;;;;4.62;2.15;;;16.70;62.10;;;;;;1874870;76;21030;-59
2022/10/12 09:53:24;;;;;;;3.33;2.27;;;16.70;64.50;;;;;;1818974;78;21026;-62
2022/10/12 09:56:02;;;;;;;3.35;1.62;;;16.70;64.40;;;;;;1872408;76;21527;-60
2022/10/12 09:58:32;;;;;;;2.27;1.47;;;16.70;65.10;;;;;;1875043;76;21038;-60
2022/10/12 10:01:25;;;;;;;1.95;1.40;;;16.70;64.50;;;;;;1820183;79;21118;-60
2022/10/12 10:04:09;;;;;;;5.10;3.17;;;16.70;64.80;;;;;;1806152;79;21110;-62
2022/10/12 10:06:41;;;;;;;3.90;2.00;;;16.70;65.60;;;;;;1820209;79;21138;-60
2022/10/12 10:09:28;;;;;;;1.90;1.50;;;16.70;65.60;;;;;;1872343;77;21034;-60
2022/10/12 10:11:59;;;;;;;1.52;1.30;;;16.70;65.50;;;;;;1862347;76;21062;-61
2022/10/12 10:14:29;;;;;;;3.70;1.75;;;16.80;65.60;;;;;;1870106;76;21088;-64
2022/10/12 10:16:59;;;;;;;3.62;1.35;;;16.90;64.80;;;;;;1875082;76;21101;-66
2022/10/12 10:19:28;;;;;;;4.20;1.75;;;16.90;64.80;;;;;;1874268;76;21030;-63
2022/10/12 10:22:00;;;;;;;2.72;1.60;;;17.00;62.90;;;;;;1873388;76;21034;-64
2022/10/12 10:24:31;;;;;;;2.70;1.40;;;17.10;63.60;;;;;;1872575;76;21101;-63
2022/10/12 10:27:03;;;;;;;5.00;2.22;;;17.10;63.80;;;;;;1873240;76;21168;-61
2022/10/12 10:29:35;;;;;;;6.37;2.15;;;17.20;64.40;;;;;;1873153;76;21168;-60
2022/10/12 10:32:12;;;;;;;2.85;1.85;;;17.20;64.90;;;;;;1873415;76;21112;-60
2022/10/12 10:34:43;;;;;;;3.55;1.60;;;17.20;65.80;;;;;;1866370;76;21100;-60
2022/10/12 10:37:18;;;;;;;2.90;2.02;;;17.20;63.10;;;;;;1787389;80;21113;-59
2022/10/12 10:39:48;;;;;;;;;;;17.20;63.50;;;;;;1873175;77;21172;-60
2022/10/12 10:42:22;;;;;;;6.08;2.52;;;17.20;60.80;;;;;;1866472;77;20097;-60
2022/10/12 10:44:54;;;;;;;3.58;1.90;;;17.20;63.70;;;;;;1864534;76;21070;-60
2022/10/12 10:47:23;;;;;;;2.40;1.47;;;17.10;63.80;;;;;;1864329;76;21485;-60
2022/10/12 10:49:58;;;;;;;3.05;1.42;;;17.10;64.20;;;;;;1864222;77;21148;-60
2022/10/12 10:52:37;;;;;;;1.95;1.40;;;17.10;64.20;;;;;;1864305;76;21054;-61
2022/10/12 10:55:12;;;;;;;3.20;1.87;;;17.10;63.10;;;;;;1864312;77;21019;-61
2022/10/12 10:57:44;;;;;;;3.85;1.80;;;17.20;61.90;;;;;;1864461;77;21195;-61
2022/10/12 11:00:19;;;;;;;2.60;1.57;;;17.30;61.80;;;;;;1864357;76;21101;-61
2022/10/12 11:02:56;;;;;;;2.58;1.50;;;17.30;59.80;;;;;;1863740;77;21086;-61
2022/10/12 11:05:31;;;;;;;6.62;2.75;;;17.40;61.80;;;;;;1864290;77;21101;-61
2022/10/12 11:08:03;;;;;;;;;;;17.40;60.80;;;;;;1867252;77;21528;-61
2022/10/12 11:10:44;;;;;;;3.77;1.72;;;17.40;60.30;;;;;;1864321;77;20117;-62
2022/10/12 11:13:22;;;;;;;5.95;1.90;;;17.40;60.00;;;;;;1862846;76;21082;-60
2022/10/12 11:15:56;;;;;;;2.50;1.30;;;17.50;60.70;;;;;;1864497;77;21434;-66
2022/10/12 11:18:30;;;;;;;4.03;1.60;;;17.50;61.20;;;;;;1858361;77;21121;-61
2022/10/12 11:21:05;;;;;;;3.08;1.55;;;17.50;61.70;;;;;;1864323;76;21062;-62
2022/10/12 11:23:39;;;;;;;3.42;2.72;;;17.50;62.40;;;;;;1864393;77;21045;-62
2022/10/12 11:26:11;;;;;;;4.05;2.33;;;17.50;61.10;;;;;;1864658;76;21114;-63
2022/10/12 11:28:41;;;;;;;3.08;2.20;;;17.50;60.30;;;;;;1863735;76;21066;-61
2022/10/12 11:31:20;;;;;;;2.98;1.90;;;17.50;61.10;;;;;;1864355;77;21018;-61
2022/10/12 11:33:50;;;;;;;4.22;1.70;;;17.60;59.70;;;;;;1864466;77;21167;-61
2022/10/12 11:36:23;;;;;;;2.60;1.90;;;17.60;60.50;;;;;;1864164;76;21172;-60
2022/10/12 11:39:01;;;;;;;5.45;3.52;;;17.60;60.10;;;;;;1864461;77;21481;-61
2022/10/12 11:41:47;;;;;;;2.92;2.00;;;17.70;61.00;;;;;;1863968;76;21066;-63
2022/10/12 11:44:27;;;;;;;3.87;1.75;;;17.70;59.80;;;;;;1869613;76;21136;-64
2022/10/12 11:47:11;;;;;;;4.78;2.00;;;17.70;60.30;;;;;;1956124;72;21090;-64
2022/10/12 11:50:01;;;;;;;1.47;1.32;;;17.70;60.30;;;;;;1933101;73;21048;-64
2022/10/12 11:52:38;;;;;;;1.82;1.10;;;17.70;59.40;;;;;;1955993;73;21130;-62
2022/10/12 11:55:32;;;;;;;3.58;2.37;;;17.80;58.50;;;;;;1956248;73;21149;-61
2022/10/12 11:58:03;;;;;;;1.50;1.27;;;17.80;58.40;;;;;;1921100;75;21032;-65
2022/10/12 12:00:52;;;;;;;5.30;1.77;;;17.80;58.00;;;;;;1920833;75;21222;-63
2022/10/12 12:03:30;;;;;;;4.40;1.50;;;17.80;58.60;;;;;;1940542;73;21115;-62
2022/10/12 12:06:02;;;;;;;3.65;1.92;;;17.80;57.90;;;;;;1956060;73;21149;-61
2022/10/12 12:08:43;;;;;;;2.60;1.80;;;17.80;58.30;;;;;;1938379;73;21494;-61
2022/10/12 12:11:33;;;;;;;5.60;1.55;;;17.80;58.90;;;;;;1955972;73;21510;-65
2022/10/12 12:14:28;;;;;;;1.60;1.22;;;17.80;57.60;;;;;;1890198;76;21105;-62
2022/10/12 12:17:25;;;;;;;2.42;1.52;;;17.90;58.00;;;;;;1890212;76;21563;-61
2022/10/12 12:19:53;;;;;;;3.60;1.40;;;17.90;58.30;;;;;;1924837;74;21053;-59
2022/10/12 12:22:31;;;;;;;2.42;1.70;;;17.90;57.90;;;;;;1925004;74;21095;-64
2022/10/12 12:25:06;;;;;;;3.90;2.52;;;17.80;57.50;;;;;;1921983;74;21086;-59
2022/10/12 12:27:38;;;;;;;3.58;2.10;;;17.90;58.00;;;;;;1925524;74;21036;-62
2022/10/12 12:30:16;;;;;;;2.75;2.25;;;17.90;58.60;;;;;;1925533;74;20996;-60
2022/10/12 12:33:01;;;;;;;10.08;2.37;;;17.90;59.40;;;;;;1921636;74;21154;-61
2022/10/12 12:35:33;;;;;;;2.15;1.95;;;17.90;58.50;;;;;;1925741;74;21029;-60
2022/10/12 12:38:16;;;;;;;5.35;1.80;;;17.90;57.80;;;;;;1925512;74;21443;-60
2022/10/12 12:41:09;;;;;;;4.97;2.20;;;17.90;58.00;;;;;;1925550;74;21013;-59
2022/10/12 12:43:46;;;;;;;2.37;1.57;;;17.90;57.20;;;;;;1925433;74;21009;-59
2022/10/12 12:46:15;;;;;;;5.40;2.65;;;17.90;55.00;;;;;;1925501;74;21067;-61
2022/10/12 12:48:47;;;;;;;3.08;2.02;;;17.90;56.10;;;;;;1925512;74;21790;-61
2022/10/12 12:51:22;;;;;;;5.78;2.20;;;17.90;56.40;;;;;;1925452;74;21060;-62
2022/10/12 12:54:00;;;;;;;7.55;4.33;;;17.90;55.50;;;;;;1925522;74;21102;-61
2022/10/12 12:56:35;;;;;;;7.62;3.27;;;17.80;55.50;;;;;;1922480;74;21076;-61
2022/10/12 12:59:24;;;;;;;6.37;4.05;;;17.80;56.10;;;;;;1925468;74;21554;-63
2022/10/12 13:02:12;;;;;;;4.62;2.75;;;17.80;56.90;;;;;;1925653;74;21133;-63
2022/10/12 13:04:50;;;;;;;2.85;1.75;;;17.80;57.90;;;;;;1917785;74;21110;-64
2022/10/12 13:07:38;;;;;;;7.47;1.90;;;17.80;56.90;;;;;;1926453;74;21008;-58
2022/10/12 13:10:44;;;;;;;3.37;1.80;;;17.80;55.90;;;;;;1921764;74;21013;-59
2022/10/12 13:13:32;;;;;;;7.60;2.95;;;17.80;56.90;;;;;;1926439;74;21036;-59
2022/10/12 13:16:09;;;;;;;6.70;4.12;;;17.80;57.00;;;;;;1925903;74;21013;-59
2022/10/12 13:18:53;;;;;;;3.70;2.42;;;17.70;57.20;;;;;;1924808;74;21106;-58
2022/10/12 13:21:26;;;;;;;8.30;2.25;;;17.70;56.90;;;;;;1922696;75;21045;-58